createdAt,value
2022-10-12T00:00:54.824Z,4.35
2022-10-12T00:03:22.740Z,5.20
2022-10-12T00:05:51.476Z,5.68
2022-10-12T00:08:19.134Z,4.43
2022-10-12T00:10:46.357Z,4.85
2022-10-12T00:13:13.585Z,4.88
2022-10-12T00:15:40.737Z,3.88
2022-10-12T00:18:07.999Z,4.05
2022-10-12T00:20:35.480Z,4.68
2022-10-12T00:23:02.878Z,4.78
2022-10-12T00:25:30.382Z,3.70
2022-10-12T00:27:57.776Z,3.55
2022-10-12T00:30:25.193Z,4.20
2022-10-12T00:32:52.406Z,5.68
2022-10-12T00:35:19.675Z,4.03
2022-10-12T00:37:46.953Z,4.35
2022-10-12T00:40:14.224Z,5.10
2022-10-12T00:42:41.506Z,4.55
2022-10-12T00:45:08.739Z,3.72
2022-10-12T00:47:36.493Z,3.78
2022-10-12T00:50:03.946Z,3.95
2022-10-12T00:52:31.267Z,3.67
2022-10-12T00:54:58.474Z,4.20
2022-10-12T00:57:25.725Z,4.18
2022-10-12T00:59:54.627Z,4.05
2022-10-12T01:02:21.921Z,4.80
2022-10-12T01:04:49.146Z,4.60
2022-10-12T01:07:16.375Z,5.00
2022-10-12T01:09:43.625Z,4.40
2022-10-12T01:12:11.056Z,4.10
2022-10-12T01:14:38.330Z,3.92
2022-10-12T01:17:05.863Z,4.25
2022-10-12T01:19:33.199Z,3.72
2022-10-12T01:22:00.448Z,3.97
2022-10-12T01:24:28.078Z,3.78
2022-10-12T01:26:55.341Z,3.67
2022-10-12T01:29:22.651Z,4.55
2022-10-12T01:31:49.897Z,3.60
2022-10-12T01:34:17.137Z,3.20
2022-10-12T01:36:44.380Z,3.75
2022-10-12T01:39:11.717Z,3.00
2022-10-12T01:41:39.200Z,3.45
2022-10-12T01:44:06.410Z,3.45
2022-10-12T01:46:33.568Z,3.60
2022-10-12T01:49:00.832Z,2.88
2022-10-12T01:51:28.007Z,3.90
2022-10-12T01:53:55.286Z,4.28
2022-10-12T01:56:22.510Z,3.13
2022-10-12T01:58:49.680Z,4.15
2022-10-12T02:01:17.108Z,3.40
2022-10-12T02:03:44.476Z,3.08
2022-10-12T02:06:11.691Z,3.35
2022-10-12T02:08:38.863Z,3.40
2022-10-12T02:11:06.198Z,3.55
2022-10-12T02:13:33.387Z,3.60
2022-10-12T02:16:00.610Z,4.32
2022-10-12T02:18:27.858Z,4.30
2022-10-12T02:20:55.087Z,3.92
2022-10-12T02:23:22.265Z,3.35
2022-10-12T02:25:49.730Z,4.13
2022-10-12T02:28:16.921Z,3.63
2022-10-12T02:30:44.205Z,3.53
2022-10-12T02:33:11.434Z,4.65
2022-10-12T02:35:38.639Z,3.55
2022-10-12T02:38:05.865Z,3.13
2022-10-12T02:40:33.227Z,3.15
2022-10-12T02:43:15.597Z,3.13
2022-10-12T02:45:42.940Z,4.35
2022-10-12T02:48:10.086Z,4.00
2022-10-12T02:50:37.276Z,3.28
2022-10-12T02:53:04.473Z,3.17
2022-10-12T02:55:31.745Z,3.58
2022-10-12T02:57:58.990Z,3.67
2022-10-12T03:00:26.200Z,3.15
2022-10-12T03:02:53.355Z,3.47
2022-10-12T03:05:20.648Z,3.25
2022-10-12T03:07:47.839Z,3.33
2022-10-12T03:10:15.097Z,3.75
2022-10-12T03:12:45.377Z,3.15
2022-10-12T03:15:15.018Z,2.97
2022-10-12T03:17:42.171Z,3.53
2022-10-12T03:20:09.423Z,3.97
2022-10-12T03:22:36.614Z,3.60
2022-10-12T03:25:03.825Z,3.30
2022-10-12T03:27:31.004Z,3.55
2022-10-12T03:29:58.201Z,3.38
2022-10-12T03:32:25.495Z,3.20
2022-10-12T03:34:52.750Z,5.13
2022-10-12T03:37:20.037Z,3.65
2022-10-12T03:39:47.308Z,4.03
2022-10-12T03:42:14.580Z,3.35
2022-10-12T03:44:41.731Z,3.47
2022-10-12T03:47:08.905Z,3.13
2022-10-12T03:49:36.108Z,3.70
2022-10-12T03:52:03.298Z,3.50
2022-10-12T03:54:30.820Z,3.08
2022-10-12T03:56:58.055Z,3.35
2022-10-12T03:59:25.232Z,3.47
2022-10-12T04:01:52.483Z,3.95
2022-10-12T04:04:19.695Z,5.10
2022-10-12T04:06:47.015Z,5.00
2022-10-12T04:09:14.218Z,4.60
2022-10-12T04:11:41.503Z,4.15
2022-10-12T04:14:08.670Z,3.83
2022-10-12T04:16:35.958Z,3.63
2022-10-12T04:19:03.204Z,3.90
2022-10-12T04:21:30.411Z,3.50
2022-10-12T04:23:57.578Z,2.97
2022-10-12T04:26:24.858Z,3.10
2022-10-12T04:28:52.139Z,2.55
2022-10-12T04:31:19.519Z,2.55
2022-10-12T04:33:46.770Z,3.38
2022-10-12T04:36:13.965Z,2.58
2022-10-12T04:38:41.164Z,3.22
2022-10-12T04:41:08.514Z,3.42
2022-10-12T04:43:35.700Z,4.13
2022-10-12T04:46:02.895Z,3.25
2022-10-12T04:48:30.177Z,3.10
2022-10-12T04:50:57.439Z,2.60
2022-10-12T04:53:24.690Z,3.67
2022-10-12T04:55:51.889Z,2.55
2022-10-12T04:58:19.117Z,2.63
2022-10-12T05:00:46.290Z,2.83
2022-10-12T05:03:17.622Z,2.63
2022-10-12T05:05:49.519Z,2.75
2022-10-12T05:08:20.260Z,2.38
2022-10-12T05:10:47.530Z,2.88
2022-10-12T05:13:14.905Z,2.83
2022-10-12T05:15:42.441Z,3.00
2022-10-12T05:18:09.665Z,3.78
2022-10-12T05:20:37.545Z,3.58
2022-10-12T05:23:04.885Z,3.50
2022-10-12T05:25:32.179Z,3.55
2022-10-12T05:27:59.401Z,4.57
2022-10-12T05:30:26.740Z,4.53
2022-10-12T05:32:53.964Z,4.30
2022-10-12T05:35:21.216Z,4.60
2022-10-12T05:37:48.442Z,4.63
2022-10-12T05:40:15.741Z,3.97
2022-10-12T05:42:44.583Z,4.15
2022-10-12T05:45:12.122Z,4.05
2022-10-12T05:47:39.489Z,3.00
2022-10-12T05:50:07.002Z,2.50
2022-10-12T05:52:34.181Z,3.25
2022-10-12T05:55:01.417Z,5.28
2022-10-12T05:57:28.673Z,4.03
2022-10-12T05:59:56.049Z,4.55
2022-10-12T06:02:23.235Z,4.07
2022-10-12T06:04:50.608Z,3.63
2022-10-12T06:07:17.924Z,3.63
2022-10-12T06:09:45.390Z,4.40
2022-10-12T06:12:12.766Z,3.75
2022-10-12T06:14:40.071Z,3.78
2022-10-12T06:17:07.859Z,4.15
2022-10-12T06:19:35.206Z,3.50
2022-10-12T06:22:02.519Z,3.17
2022-10-12T06:24:29.798Z,3.88
2022-10-12T06:26:57.087Z,3.50
2022-10-12T06:29:25.198Z,3.67
2022-10-12T06:31:52.525Z,3.47
2022-10-12T06:34:19.817Z,3.50
2022-10-12T06:36:47.070Z,3.67
2022-10-12T06:39:14.342Z,4.03
2022-10-12T06:41:41.583Z,3.47
2022-10-12T06:44:09.322Z,4.25
2022-10-12T06:46:36.525Z,3.60
2022-10-12T06:49:03.862Z,3.33
2022-10-12T06:51:31.140Z,4.70
2022-10-12T06:53:58.363Z,3.58
2022-10-12T06:56:25.642Z,4.18
2022-10-12T06:58:52.950Z,3.92
2022-10-12T07:01:20.184Z,4.00
2022-10-12T07:03:47.561Z,5.93
2022-10-12T07:06:14.958Z,3.40
2022-10-12T07:08:42.264Z,3.63
2022-10-12T07:11:09.622Z,2.78
2022-10-12T07:13:37.221Z,3.97
2022-10-12T07:16:04.578Z,3.47
2022-10-12T07:18:31.986Z,3.75
2022-10-12T07:20:59.928Z,3.70
2022-10-12T07:23:27.250Z,3.45
2022-10-12T07:25:54.589Z,3.63
2022-10-12T07:28:21.973Z,3.72
2022-10-12T07:30:49.220Z,3.65
2022-10-12T07:33:16.508Z,3.63
2022-10-12T07:36:03.360Z,3.50
2022-10-12T07:38:32.790Z,3.60
2022-10-12T07:41:00.575Z,3.88
2022-10-12T07:43:27.829Z,3.10
2022-10-12T07:45:55.032Z,2.53
2022-10-12T07:48:22.295Z,3.60
2022-10-12T07:50:49.543Z,3.60
2022-10-12T07:53:16.852Z,3.30
2022-10-12T07:55:44.052Z,4.32
2022-10-12T07:58:13.161Z,2.65
2022-10-12T08:00:40.366Z,3.63
2022-10-12T08:03:07.709Z,3.47
2022-10-12T08:05:35.550Z,3.80
2022-10-12T08:08:02.728Z,2.95
2022-10-12T08:10:29.972Z,3.45
2022-10-12T08:12:57.206Z,3.90
2022-10-12T08:15:24.410Z,3.28
2022-10-12T08:17:51.715Z,2.55
2022-10-12T08:20:18.906Z,2.92
2022-10-12T08:22:46.280Z,4.20
2022-10-12T08:25:13.705Z,2.38
2022-10-12T08:27:41.430Z,2.67
2022-10-12T08:30:08.805Z,3.80
2022-10-12T08:32:36.054Z,2.67
2022-10-12T08:35:03.281Z,2.05
2022-10-12T08:37:30.578Z,3.03
2022-10-12T08:40:02.311Z,2.53
2022-10-12T08:42:32.325Z,2.30
2022-10-12T08:44:59.504Z,2.08
2022-10-12T08:47:26.817Z,2.70
2022-10-12T08:49:53.985Z,3.03
2022-10-12T08:52:21.404Z,2.67
2022-10-12T08:54:48.565Z,2.25
2022-10-12T08:57:15.780Z,1.90
2022-10-12T08:59:43.118Z,2.30
2022-10-12T09:02:10.422Z,1.95
2022-10-12T09:04:37.738Z,3.30
2022-10-12T09:07:05.015Z,1.90
2022-10-12T09:09:32.300Z,2.10
2022-10-12T09:11:59.594Z,2.40
2022-10-12T09:14:26.925Z,1.75
2022-10-12T09:16:54.242Z,2.85
2022-10-12T09:19:21.438Z,2.17
2022-10-12T09:21:48.804Z,2.33
2022-10-12T09:24:16.059Z,2.50
2022-10-12T09:26:43.382Z,2.28
2022-10-12T09:29:10.637Z,2.78
2022-10-12T09:31:37.975Z,3.47
2022-10-12T09:34:05.239Z,2.47
2022-10-12T09:36:32.656Z,2.38
2022-10-12T09:39:00.104Z,2.55
2022-10-12T09:41:27.721Z,2.38
2022-10-12T09:43:55.199Z,3.22
2022-10-12T09:46:22.489Z,2.88
2022-10-12T09:48:49.716Z,2.88
2022-10-12T09:51:17.016Z,3.00
2022-10-12T09:53:44.333Z,2.60
2022-10-12T09:56:13.223Z,2.53
2022-10-12T09:58:43.439Z,2.35
2022-10-12T10:01:10.789Z,2.42
2022-10-12T10:03:38.128Z,3.35
2022-10-12T10:06:05.766Z,2.80
2022-10-12T10:08:33.039Z,2.97
2022-10-12T10:11:00.349Z,4.90
2022-10-12T10:13:27.678Z,3.90
2022-10-12T10:15:54.914Z,3.72
2022-10-12T10:18:23.605Z,2.83
2022-10-12T10:20:51.179Z,2.78
2022-10-12T10:23:18.530Z,2.08
2022-10-12T10:25:45.755Z,2.53
2022-10-12T10:28:13.255Z,3.13
2022-10-12T10:30:41.467Z,2.80
2022-10-12T10:33:09.053Z,2.17
2022-10-12T10:35:38.955Z,2.83
2022-10-12T10:38:09.284Z,2.75
2022-10-12T10:40:39.001Z,2.45
2022-10-12T10:43:06.519Z,3.10
2022-10-12T10:45:33.960Z,2.92
2022-10-12T10:48:04.314Z,2.20
2022-10-12T10:50:31.583Z,2.70
2022-10-12T10:52:58.908Z,2.17
2022-10-12T10:55:26.198Z,3.05
2022-10-12T10:57:53.444Z,2.28
2022-10-12T11:00:37.953Z,2.47
2022-10-12T11:03:07.013Z,2.75
2022-10-12T11:05:37.088Z,3.22
2022-10-12T11:08:04.426Z,3.05
2022-10-12T11:10:31.812Z,2.38
2022-10-12T11:12:58.997Z,2.67
2022-10-12T11:15:26.175Z,3.30
2022-10-12T11:17:53.531Z,2.72
2022-10-12T11:20:20.720Z,2.88
2022-10-12T11:22:48.015Z,3.00
2022-10-12T11:25:15.925Z,2.72
2022-10-12T11:27:43.207Z,2.65
2022-10-12T11:30:10.480Z,3.10
2022-10-12T11:32:37.770Z,2.17
2022-10-12T11:35:04.996Z,2.95
2022-10-12T11:37:32.300Z,4.75
2022-10-12T11:39:59.546Z,2.63
2022-10-12T11:42:26.822Z,2.92
2022-10-12T11:44:54.126Z,3.50
2022-10-12T11:47:21.660Z,3.72
2022-10-12T11:49:52.236Z,2.38
2022-10-12T11:52:19.460Z,3.90
2022-10-12T11:54:46.840Z,2.03
2022-10-12T11:57:14.063Z,2.70
2022-10-12T11:59:41.300Z,2.13
2022-10-12T12:02:08.850Z,2.40
2022-10-12T12:04:47.472Z,2.38
2022-10-12T12:07:14.933Z,2.78
2022-10-12T12:09:45.317Z,2.58
2022-10-12T12:12:16.775Z,2.78
2022-10-12T12:14:44.045Z,1.85
2022-10-12T12:17:11.523Z,2.92
2022-10-12T12:19:38.751Z,3.88
2022-10-12T12:22:05.947Z,2.53
2022-10-12T12:24:33.090Z,2.50
2022-10-12T12:27:00.295Z,2.50
2022-10-12T12:29:27.834Z,1.98
2022-10-12T12:31:56.294Z,2.85
2022-10-12T12:34:23.794Z,2.13
2022-10-12T12:36:52.211Z,2.20
2022-10-12T12:39:19.495Z,2.45
2022-10-12T12:41:52.612Z,2.20
2022-10-12T12:44:22.484Z,2.10
2022-10-12T12:46:49.676Z,2.47
2022-10-12T12:49:16.924Z,2.25
2022-10-12T12:51:44.211Z,2.10
2022-10-12T12:54:11.518Z,3.22
2022-10-12T12:56:38.796Z,1.92
2022-10-12T12:59:06.171Z,2.58
2022-10-12T13:01:33.657Z,2.00
2022-10-12T13:04:01.052Z,3.15
2022-10-12T13:06:28.286Z,1.88
2022-10-12T13:08:55.537Z,2.30
2022-10-12T13:11:22.779Z,2.17
2022-10-12T13:13:50.085Z,1.45
2022-10-12T13:16:36.523Z,2.10
2022-10-12T13:19:05.009Z,1.98
2022-10-12T13:21:32.277Z,3.33
2022-10-12T13:23:59.561Z,1.30
2022-10-12T13:26:27.129Z,1.65
2022-10-12T13:28:54.412Z,1.83
2022-10-12T13:31:21.632Z,1.50
2022-10-12T13:33:50.938Z,1.88
2022-10-12T13:36:18.126Z,1.92
2022-10-12T13:38:45.342Z,1.52
2022-10-12T13:41:12.600Z,1.70
2022-10-12T13:43:39.880Z,1.38
2022-10-12T13:46:07.090Z,2.08
2022-10-12T13:48:58.311Z,1.80
2022-10-12T13:51:22.526Z,1.65
2022-10-12T13:53:49.870Z,1.45
2022-10-12T13:56:17.147Z,1.50
2022-10-12T13:58:44.584Z,1.67
2022-10-12T14:01:12.167Z,2.03
2022-10-12T14:03:39.416Z,1.58
2022-10-12T14:06:06.831Z,1.65
2022-10-12T14:08:34.618Z,1.80
2022-10-12T14:11:02.180Z,1.67
2022-10-12T14:13:29.344Z,1.95
2022-10-12T14:15:56.643Z,2.00
2022-10-12T14:18:23.868Z,2.20
2022-10-12T14:20:51.093Z,2.00
2022-10-12T14:23:18.617Z,1.65
2022-10-12T14:25:45.852Z,2.20
2022-10-12T14:28:13.016Z,2.20
2022-10-12T14:30:40.377Z,1.65
2022-10-12T14:33:07.539Z,1.88
2022-10-12T14:35:34.763Z,2.00
2022-10-12T14:38:01.927Z,1.90
2022-10-12T14:40:29.267Z,1.85
2022-10-12T14:42:56.429Z,1.95
2022-10-12T14:45:23.992Z,1.60
2022-10-12T14:47:51.226Z,1.60
2022-10-12T14:50:18.421Z,1.75
2022-10-12T14:52:45.737Z,2.00
2022-10-12T14:55:12.948Z,2.15
2022-10-12T14:57:40.169Z,1.95
2022-10-12T15:00:07.423Z,2.03
2022-10-12T15:02:34.713Z,2.10
2022-10-12T15:05:02.411Z,2.10
2022-10-12T15:07:29.669Z,2.75
2022-10-12T15:09:57.498Z,2.30
2022-10-12T15:12:24.922Z,2.35
2022-10-12T15:14:52.172Z,2.17
2022-10-12T15:17:19.437Z,1.90
2022-10-12T15:19:46.651Z,2.85
2022-10-12T15:22:14.110Z,3.22
2022-10-12T15:24:41.342Z,2.05
2022-10-12T15:27:08.699Z,2.10
2022-10-12T15:29:35.863Z,2.17
2022-10-12T15:32:03.133Z,1.95
2022-10-12T15:34:30.285Z,1.92
2022-10-12T15:36:57.564Z,1.85
2022-10-12T15:39:28.134Z,2.25
2022-10-12T15:41:55.377Z,2.05
2022-10-12T15:44:23.237Z,2.15
2022-10-12T15:46:51.117Z,2.22
2022-10-12T15:49:19.896Z,2.20
2022-10-12T15:51:47.438Z,2.13
2022-10-12T15:54:14.710Z,2.25
2022-10-12T15:56:42.809Z,3.10
2022-10-12T15:59:14.167Z,2.60
2022-10-12T16:01:45.240Z,2.60
2022-10-12T16:04:20.223Z,2.20
2022-10-12T16:06:56.025Z,2.38
2022-10-12T16:09:24.377Z,2.13
2022-10-12T16:11:52.724Z,2.28
2022-10-12T16:14:25.039Z,3.03
2022-10-12T16:16:54.190Z,2.53
2022-10-12T16:19:21.473Z,2.30
2022-10-12T16:21:49.676Z,2.30
2022-10-12T16:24:17.308Z,2.10
2022-10-12T16:26:50.478Z,2.30
2022-10-12T16:29:21.128Z,3.00
2022-10-12T16:31:49.664Z,2.63
2022-10-12T16:34:17.253Z,2.30
2022-10-12T16:36:44.704Z,3.30
2022-10-12T16:39:12.706Z,3.50
2022-10-12T16:41:41.438Z,2.22
2022-10-12T16:44:10.844Z,2.60
2022-10-12T16:46:41.217Z,2.55
2022-10-12T16:49:10.351Z,2.65
2022-10-12T16:51:43.464Z,2.63
2022-10-12T16:54:13.601Z,2.28
2022-10-12T16:56:41.122Z,1.70
2022-10-12T16:59:11.064Z,1.85
2022-10-12T17:01:41.735Z,2.00
2022-10-12T17:04:10.945Z,2.13
2022-10-12T17:06:41.555Z,2.28
2022-10-12T17:09:12.890Z,1.88
2022-10-12T17:11:40.447Z,2.40
2022-10-12T17:14:07.770Z,2.00
2022-10-12T17:16:50.364Z,2.30
2022-10-12T17:19:21.021Z,2.33
2022-10-12T17:21:49.129Z,2.30
2022-10-12T17:24:20.694Z,2.08
2022-10-12T17:26:48.142Z,1.83
2022-10-12T17:29:16.054Z,3.08
2022-10-12T17:31:45.137Z,1.70
2022-10-12T17:34:12.844Z,2.30
2022-10-12T17:36:41.550Z,2.20
2022-10-12T17:39:09.292Z,2.13
2022-10-12T17:41:38.062Z,2.50
2022-10-12T17:44:06.285Z,2.35
2022-10-12T17:46:35.391Z,2.13
2022-10-12T17:49:04.474Z,2.72
2022-10-12T17:51:31.972Z,2.28
2022-10-12T17:54:02.494Z,1.92
2022-10-12T17:56:30.325Z,1.88
2022-10-12T17:58:58.501Z,2.75
2022-10-12T18:01:25.890Z,2.10
2022-10-12T18:03:55.421Z,2.63
2022-10-12T18:06:22.754Z,2.05
2022-10-12T18:08:50.262Z,1.83
2022-10-12T18:11:17.787Z,1.80
2022-10-12T18:13:47.133Z,1.85
2022-10-12T18:16:14.513Z,1.73
2022-10-12T18:18:42.122Z,2.20
2022-10-12T18:21:09.831Z,2.40
2022-10-12T18:23:37.315Z,2.40
2022-10-12T18:26:04.592Z,2.80
2022-10-12T18:28:31.891Z,2.28
2022-10-12T18:30:59.241Z,2.13
2022-10-12T18:33:26.710Z,2.53
2022-10-12T18:35:54.788Z,2.17
2022-10-12T18:38:22.355Z,2.15
2022-10-12T18:40:49.975Z,2.33
2022-10-12T18:43:18.456Z,2.50
2022-10-12T18:45:46.067Z,2.00
2022-10-12T18:48:13.886Z,2.33
2022-10-12T18:50:43.222Z,2.40
2022-10-12T18:53:10.787Z,2.45
2022-10-12T18:55:38.573Z,2.20
2022-10-12T18:58:05.913Z,2.40
2022-10-12T19:00:33.342Z,2.90
2022-10-12T19:03:01.416Z,2.53
2022-10-12T19:05:29.349Z,2.00
2022-10-12T19:07:56.722Z,3.70
2022-10-12T19:10:24.044Z,2.75
2022-10-12T19:12:51.351Z,2.88
2022-10-12T19:15:19.200Z,2.33
2022-10-12T19:17:46.485Z,2.25
2022-10-12T19:20:13.955Z,2.75
2022-10-12T19:22:41.266Z,2.47
2022-10-12T19:25:08.640Z,2.63
2022-10-12T19:27:38.092Z,2.33
2022-10-12T19:30:06.726Z,2.25
2022-10-12T19:32:35.332Z,2.33
2022-10-12T19:35:03.076Z,2.40
2022-10-12T19:37:30.430Z,2.72
2022-10-12T19:39:58.558Z,2.53
2022-10-12T19:42:27.573Z,2.33
2022-10-12T19:44:55.569Z,2.30
2022-10-12T19:47:22.767Z,2.90
2022-10-12T19:49:50.106Z,2.28
2022-10-12T19:52:18.953Z,2.33
2022-10-12T19:54:46.500Z,2.63
2022-10-12T19:57:13.956Z,3.03
2022-10-12T19:59:42.252Z,4.70
2022-10-12T20:02:10.545Z,2.30
2022-10-12T20:04:38.589Z,2.42
2022-10-12T20:07:07.629Z,3.30
2022-10-12T20:09:34.887Z,2.60
2022-10-12T20:12:03.895Z,2.90
2022-10-12T20:14:31.831Z,3.38
2022-10-12T20:16:59.259Z,3.35
2022-10-12T20:19:26.676Z,4.90
2022-10-12T20:21:54.278Z,4.75
2022-10-12T20:24:21.557Z,5.38
2022-10-12T20:26:49.399Z,4.28
2022-10-12T20:29:16.720Z,3.95
2022-10-12T20:31:44.041Z,2.50
2022-10-12T20:34:11.237Z,3.00
2022-10-12T20:36:38.563Z,3.15
2022-10-12T20:39:05.803Z,2.55
2022-10-12T20:41:33.435Z,2.60
2022-10-12T20:44:00.788Z,2.85
2022-10-12T20:46:28.373Z,2.75
2022-10-12T20:48:58.392Z,3.33
2022-10-12T20:51:27.140Z,3.10
2022-10-12T20:53:55.311Z,4.53
2022-10-12T20:56:24.075Z,3.13
2022-10-12T20:58:52.173Z,2.83
2022-10-12T21:01:20.016Z,2.60
2022-10-12T21:03:47.998Z,3.72
2022-10-12T21:06:19.335Z,3.28
2022-10-12T21:08:47.522Z,2.45
2022-10-12T21:11:16.906Z,2.97
2022-10-12T21:13:47.262Z,3.17
2022-10-12T21:16:15.062Z,3.22
2022-10-12T21:18:46.045Z,2.42
2022-10-12T21:21:16.500Z,2.50
2022-10-12T21:23:46.567Z,2.60
2022-10-12T21:26:13.902Z,2.88
2022-10-12T21:28:43.578Z,2.38
2022-10-12T21:31:15.758Z,2.83
2022-10-12T21:33:43.378Z,2.53
2022-10-12T21:36:10.898Z,3.00
2022-10-12T21:38:38.225Z,2.70
2022-10-12T21:41:05.558Z,2.20
2022-10-12T21:43:32.818Z,2.28
2022-10-12T21:45:59.984Z,2.25
2022-10-12T21:48:27.239Z,2.40
2022-10-12T21:50:54.659Z,2.15
2022-10-12T21:53:21.953Z,2.20
2022-10-12T21:55:49.178Z,1.98
2022-10-12T21:58:16.422Z,1.88
2022-10-12T22:00:43.694Z,2.20
2022-10-12T22:03:11.053Z,2.40
2022-10-12T22:05:38.385Z,3.50
2022-10-12T22:08:06.259Z,2.15
2022-10-12T22:10:34.294Z,1.85
2022-10-12T22:13:03.985Z,2.33
2022-10-12T22:15:31.339Z,4.38
2022-10-12T22:18:05.406Z,2.67
2022-10-12T22:20:32.779Z,2.13
2022-10-12T22:23:00.032Z,2.45
2022-10-12T22:25:27.486Z,2.38
2022-10-12T22:27:54.737Z,2.25
2022-10-12T22:30:21.917Z,2.05
2022-10-12T22:32:49.246Z,3.20
2022-10-12T22:35:16.499Z,4.20
2022-10-12T22:37:43.961Z,2.53
2022-10-12T22:40:11.639Z,2.60
2022-10-12T22:42:38.878Z,2.22
2022-10-12T22:45:06.314Z,2.40
2022-10-12T22:47:33.668Z,2.72
2022-10-12T22:50:01.649Z,2.75
2022-10-12T22:52:28.966Z,2.28
2022-10-12T22:54:56.254Z,2.42
2022-10-12T22:57:23.450Z,2.60
2022-10-12T22:59:50.949Z,2.47
2022-10-12T23:02:18.471Z,2.42
2022-10-12T23:04:46.089Z,2.58
2022-10-12T23:07:13.245Z,3.05
2022-10-12T23:09:41.388Z,2.40
2022-10-12T23:12:08.560Z,2.78
2022-10-12T23:14:35.761Z,2.55
2022-10-12T23:17:02.941Z,2.88
2022-10-12T23:19:30.194Z,2.95
2022-10-12T23:21:57.554Z,3.30
2022-10-12T23:24:24.934Z,3.10
2022-10-12T23:26:52.075Z,4.32
2022-10-12T23:29:19.329Z,2.55
2022-10-12T23:31:46.494Z,3.72
2022-10-12T23:34:15.050Z,4.85
2022-10-12T23:36:43.978Z,3.55
2022-10-12T23:39:11.278Z,3.47
2022-10-12T23:41:38.538Z,3.10
2022-10-12T23:44:05.760Z,3.25
2022-10-12T23:46:33.483Z,2.17
2022-10-12T23:49:00.746Z,2.60
2022-10-12T23:51:28.024Z,2.33
2022-10-12T23:53:55.392Z,2.10
2022-10-12T23:56:22.550Z,2.15
2022-10-12T23:58:49.791Z,1.77
